createdAt,value
2023-03-08T00:01:18.730Z,11.50
2023-03-08T00:03:45.793Z,12.10
2023-03-08T00:06:15.251Z,11.80
2023-03-08T00:08:42.135Z,13.23
2023-03-08T00:11:11.068Z,11.07
2023-03-08T00:13:37.605Z,11.03
2023-03-08T00:16:07.031Z,12.23
2023-03-08T00:18:34.739Z,12.20
2023-03-08T00:21:07.197Z,15.03
2023-03-08T00:23:33.931Z,10.93
2023-03-08T00:26:00.919Z,10.47
2023-03-08T00:28:27.908Z,11.83
2023-03-08T00:31:02.249Z,11.23
2023-03-08T00:33:30.432Z,11.00
2023-03-08T00:36:05.363Z,10.97
2023-03-08T00:38:33.540Z,13.67
2023-03-08T00:41:00.329Z,10.83
2023-03-08T00:43:27.058Z,11.77
2023-03-08T00:45:53.509Z,10.70
2023-03-08T00:48:20.761Z,13.77
2023-03-08T00:50:47.567Z,11.80
2023-03-08T00:53:14.243Z,12.60
2023-03-08T00:55:49.151Z,12.10
2023-03-08T00:58:15.673Z,11.57
2023-03-08T01:00:42.099Z,11.27
2023-03-08T01:03:08.976Z,10.80
2023-03-08T01:05:43.897Z,10.60
2023-03-08T01:08:13.195Z,12.10
2023-03-08T01:10:40.670Z,12.70
2023-03-08T01:13:09.477Z,10.50
2023-03-08T01:15:37.823Z,11.43
2023-03-08T01:18:05.962Z,11.30
2023-03-08T01:20:32.685Z,9.47
2023-03-08T01:22:59.160Z,10.60
2023-03-08T01:25:25.671Z,9.70
2023-03-08T01:27:52.436Z,10.13
2023-03-08T01:30:18.832Z,11.47
2023-03-08T01:32:45.611Z,10.07
2023-03-08T01:35:12.158Z,10.43
2023-03-08T01:37:38.911Z,9.83
2023-03-08T01:40:06.436Z,11.80
2023-03-08T01:42:33.421Z,12.80
2023-03-08T01:45:06.195Z,11.50
2023-03-08T01:47:36.459Z,10.30
2023-03-08T01:50:10.789Z,9.13
2023-03-08T01:52:48.681Z,12.17
2023-03-08T01:55:17.050Z,11.83
2023-03-08T01:57:52.122Z,11.37
2023-03-08T02:00:22.957Z,10.57
2023-03-08T02:02:59.544Z,10.93
2023-03-08T02:05:27.646Z,11.27
2023-03-08T02:07:54.008Z,10.07
2023-03-08T02:10:20.908Z,10.97
2023-03-08T02:12:48.708Z,9.10
2023-03-08T02:15:20.006Z,11.23
2023-03-08T02:17:46.859Z,10.23
2023-03-08T02:20:30.511Z,11.70
2023-03-08T02:23:27.726Z,8.70
2023-03-08T02:25:57.038Z,11.27
2023-03-08T02:28:25.188Z,11.10
2023-03-08T02:30:52.122Z,11.50
2023-03-08T02:33:18.821Z,11.07
2023-03-08T02:35:45.845Z,10.67
2023-03-08T02:38:14.839Z,9.83
2023-03-08T02:40:41.630Z,12.03
2023-03-08T02:43:08.457Z,11.37
2023-03-08T02:45:35.365Z,9.20
2023-03-08T02:48:04.039Z,9.63
2023-03-08T02:50:31.681Z,12.17
2023-03-08T02:52:58.616Z,10.50
2023-03-08T02:55:24.986Z,10.73
2023-03-08T02:57:52.120Z,12.23
2023-03-08T03:00:19.141Z,13.63
2023-03-08T03:02:45.933Z,12.57
2023-03-08T03:05:12.873Z,11.53
2023-03-08T03:07:41.567Z,12.00
2023-03-08T03:10:12.267Z,11.67
2023-03-08T03:12:39.202Z,11.43
2023-03-08T03:15:08.132Z,11.73
2023-03-08T03:17:36.745Z,11.20
2023-03-08T03:20:06.561Z,12.27
2023-03-08T03:22:33.266Z,12.00
2023-03-08T03:24:59.658Z,11.90
2023-03-08T03:27:26.117Z,9.67
2023-03-08T03:29:52.586Z,11.47
2023-03-08T03:32:19.660Z,12.63
2023-03-08T03:34:46.600Z,11.17
2023-03-08T03:37:12.981Z,12.70
2023-03-08T03:39:40.175Z,10.97
2023-03-08T03:42:08.005Z,14.83
2023-03-08T03:44:34.494Z,11.70
2023-03-08T03:47:00.968Z,9.77
2023-03-08T03:49:27.527Z,11.73
2023-03-08T03:51:54.014Z,12.47
2023-03-08T03:54:20.924Z,12.17
2023-03-08T03:56:47.438Z,10.63
2023-03-08T03:59:13.858Z,12.40
2023-03-08T04:01:40.235Z,11.83
2023-03-08T04:04:06.821Z,11.53
2023-03-08T04:06:34.327Z,11.47
2023-03-08T04:09:04.479Z,13.70
2023-03-08T04:11:37.386Z,11.57
2023-03-08T04:14:04.757Z,11.40
2023-03-08T04:16:33.499Z,10.67
2023-03-08T04:19:07.130Z,13.17
2023-03-08T04:21:33.734Z,12.57
2023-03-08T04:24:00.902Z,11.90
2023-03-08T04:26:27.793Z,13.27
2023-03-08T04:28:54.435Z,10.63
2023-03-08T04:31:29.641Z,10.77
2023-03-08T04:33:56.246Z,12.17
2023-03-08T04:36:23.090Z,11.33
2023-03-08T04:38:50.735Z,11.07
2023-03-08T04:41:17.950Z,11.73
2023-03-08T04:43:47.340Z,11.87
2023-03-08T04:46:15.283Z,9.23
2023-03-08T04:48:42.400Z,11.30
2023-03-08T04:51:11.936Z,11.43
2023-03-08T04:53:39.245Z,13.77
2023-03-08T04:56:06.740Z,14.97
2023-03-08T04:58:33.812Z,15.40
2023-03-08T05:01:00.296Z,12.80
2023-03-08T05:03:26.670Z,12.17
2023-03-08T05:05:55.497Z,12.37
2023-03-08T05:08:23.573Z,11.77
2023-03-08T05:11:00.520Z,10.70
2023-03-08T05:13:29.767Z,10.90
2023-03-08T05:15:56.708Z,12.87
2023-03-08T05:18:23.161Z,11.00
2023-03-08T05:20:57.526Z,10.80
2023-03-08T05:23:27.091Z,12.33
2023-03-08T05:25:56.140Z,13.20
2023-03-08T05:28:27.771Z,11.40
2023-03-08T05:31:20.978Z,15.30
2023-03-08T05:33:50.892Z,13.93
2023-03-08T05:36:18.703Z,14.27
2023-03-08T05:38:45.208Z,14.73
2023-03-08T05:41:14.947Z,14.40
2023-03-08T05:43:41.767Z,12.83
2023-03-08T05:46:11.841Z,12.93
2023-03-08T05:48:38.835Z,15.07
2023-03-08T05:51:16.939Z,12.83
2023-03-08T05:53:43.962Z,14.33
2023-03-08T05:56:15.934Z,12.53
2023-03-08T05:58:43.990Z,14.07
2023-03-08T06:01:17.018Z,12.57
2023-03-08T06:03:44.867Z,12.23
2023-03-08T06:06:13.276Z,11.00
2023-03-08T06:08:40.228Z,11.60
2023-03-08T06:11:06.917Z,19.43
2023-03-08T06:13:33.891Z,11.73
2023-03-08T06:16:01.036Z,14.30
2023-03-08T06:18:28.443Z,12.70
2023-03-08T06:21:16.103Z,13.47
2023-03-08T06:23:43.406Z,12.63
2023-03-08T06:26:11.499Z,15.00
2023-03-08T06:28:40.315Z,13.87
2023-03-08T06:31:08.192Z,15.40
2023-03-08T06:33:35.169Z,13.13
2023-03-08T06:36:08.941Z,13.83
2023-03-08T06:38:37.702Z,13.70
2023-03-08T06:41:05.471Z,15.57
2023-03-08T06:43:32.469Z,14.87
2023-03-08T06:45:58.919Z,16.30
2023-03-08T06:48:25.362Z,13.47
2023-03-08T06:50:51.872Z,21.50
2023-03-08T06:53:18.293Z,15.03
2023-03-08T06:55:44.745Z,21.60
2023-03-08T06:58:11.115Z,14.83
2023-03-08T07:00:38.464Z,16.73
2023-03-08T07:03:05.265Z,24.90
2023-03-08T07:05:31.758Z,18.23
2023-03-08T07:07:58.595Z,16.90
2023-03-08T07:10:25.292Z,15.57
2023-03-08T07:12:51.743Z,14.87
2023-03-08T07:15:22.316Z,17.13
2023-03-08T07:17:51.048Z,17.53
2023-03-08T07:20:20.340Z,15.83
2023-03-08T07:22:47.172Z,17.87
2023-03-08T07:25:16.072Z,14.67
2023-03-08T07:27:43.095Z,16.90
2023-03-08T07:30:11.099Z,16.80
2023-03-08T07:32:40.444Z,19.20
2023-03-08T07:35:08.095Z,15.70
2023-03-08T07:37:34.597Z,17.53
2023-03-08T07:40:00.971Z,17.47
2023-03-08T07:42:27.516Z,15.63
2023-03-08T07:44:54.214Z,20.07
2023-03-08T07:47:21.337Z,17.20
2023-03-08T07:49:47.896Z,18.53
2023-03-08T07:52:14.572Z,19.13
2023-03-08T07:54:41.067Z,14.43
2023-03-08T07:57:07.787Z,14.03
2023-03-08T07:59:34.173Z,19.10
2023-03-08T08:02:00.566Z,15.50
2023-03-08T08:04:26.959Z,17.70
2023-03-08T08:06:53.368Z,20.40
2023-03-08T08:09:19.797Z,18.53
2023-03-08T08:11:46.500Z,18.67
2023-03-08T08:14:12.893Z,18.20
2023-03-08T08:16:39.392Z,17.73
2023-03-08T08:19:06.218Z,15.43
2023-03-08T08:21:32.853Z,15.90
2023-03-08T08:23:59.455Z,19.40
2023-03-08T08:26:26.085Z,20.70
2023-03-08T08:28:54.565Z,17.67
2023-03-08T08:31:29.078Z,18.00
2023-03-08T08:33:55.509Z,17.37
2023-03-08T08:36:21.979Z,18.07
2023-03-08T08:38:48.897Z,19.80
2023-03-08T08:41:18.277Z,20.03
2023-03-08T08:43:46.424Z,20.97
2023-03-08T08:46:13.500Z,22.40
2023-03-08T08:48:40.317Z,22.53
2023-03-08T08:51:09.028Z,23.80
2023-03-08T08:53:36.929Z,18.77
2023-03-08T08:56:26.729Z,21.60
2023-03-08T08:58:59.445Z,24.43
2023-03-08T09:01:29.159Z,21.47
2023-03-08T09:03:56.064Z,20.37
2023-03-08T09:06:24.130Z,18.87
2023-03-08T09:08:56.083Z,21.80
2023-03-08T09:11:23.648Z,21.20
2023-03-08T09:13:50.516Z,24.10
2023-03-08T09:16:33.630Z,25.43
2023-03-08T09:19:01.700Z,26.23
2023-03-08T09:21:30.479Z,26.53
2023-03-08T09:24:00.797Z,22.77
2023-03-08T09:26:32.737Z,26.97
2023-03-08T09:29:04.704Z,22.93
2023-03-08T09:31:32.821Z,21.50
2023-03-08T09:34:00.128Z,22.67
2023-03-08T09:36:28.729Z,19.83
2023-03-08T09:38:56.336Z,21.77
2023-03-08T09:41:46.933Z,20.23
2023-03-08T09:44:43.657Z,22.87
2023-03-08T09:47:58.533Z,24.70
2023-03-08T09:50:34.061Z,20.97
2023-03-08T09:53:16.568Z,20.03
2023-03-08T09:55:53.041Z,23.70
2023-03-08T09:58:31.819Z,22.67
2023-03-08T10:01:12.022Z,21.50
2023-03-08T10:04:03.208Z,22.33
2023-03-08T10:06:50.121Z,24.87
2023-03-08T10:09:31.863Z,22.73
2023-03-08T10:12:22.726Z,26.87
2023-03-08T10:14:51.946Z,25.37
2023-03-08T10:17:22.506Z,27.43
2023-03-08T10:20:06.968Z,25.80
2023-03-08T10:22:39.005Z,24.30
2023-03-08T10:25:20.527Z,25.17
2023-03-08T10:27:51.749Z,26.90
2023-03-08T10:30:20.883Z,23.33
2023-03-08T10:32:50.969Z,25.77
2023-03-08T10:35:29.700Z,27.60
2023-03-08T10:37:56.118Z,26.53
2023-03-08T10:40:22.808Z,27.40
2023-03-08T10:43:14.504Z,25.67
2023-03-08T10:45:40.857Z,32.17
2023-03-08T10:48:07.658Z,28.07
2023-03-08T10:50:37.683Z,28.80
2023-03-08T10:53:17.121Z,30.07
2023-03-08T10:55:48.832Z,27.10
2023-03-08T10:58:34.815Z,28.47
2023-03-08T11:01:26.396Z,25.60
2023-03-08T11:04:06.058Z,27.83
2023-03-08T11:06:35.327Z,27.30
2023-03-08T11:09:04.393Z,31.63
2023-03-08T11:11:41.517Z,30.40
2023-03-08T11:14:11.058Z,29.70
2023-03-08T11:16:52.877Z,29.00
2023-03-08T11:19:33.119Z,26.53
2023-03-08T11:22:18.493Z,24.67
2023-03-08T11:25:11.091Z,28.57
2023-03-08T11:28:22.888Z,30.67
2023-03-08T11:31:03.733Z,26.63
2023-03-08T11:33:48.773Z,26.33
2023-03-08T11:36:35.341Z,29.90
2023-03-08T11:39:30.717Z,28.00
2023-03-08T11:42:05.829Z,30.30
2023-03-08T11:44:44.158Z,24.10
2023-03-08T11:47:34.036Z,27.90
2023-03-08T11:50:10.237Z,26.00
2023-03-08T11:55:55.402Z,27.63
2023-03-08T11:58:28.433Z,29.73
2023-03-08T12:01:01.385Z,30.63
2023-03-08T12:03:43.237Z,32.00
2023-03-08T12:06:29.192Z,29.70
2023-03-08T12:09:05.014Z,27.63
2023-03-08T12:11:35.997Z,34.03
2023-03-08T12:14:18.147Z,32.43
2023-03-08T12:17:10.120Z,27.60
2023-03-08T12:19:39.763Z,32.17
2023-03-08T12:22:12.195Z,36.83
2023-03-08T12:24:51.294Z,25.80
2023-03-08T12:27:21.277Z,30.07
2023-03-08T12:30:18.906Z,29.43
2023-03-08T12:32:47.374Z,33.73
2023-03-08T12:35:23.266Z,30.73
2023-03-08T12:38:00.587Z,30.10
2023-03-08T12:40:50.067Z,30.67
2023-03-08T12:43:19.441Z,28.40
2023-03-08T12:46:09.895Z,30.13
2023-03-08T12:48:49.255Z,28.90
2023-03-08T12:51:20.296Z,33.20
2023-03-08T12:53:49.657Z,31.40
2023-03-08T12:56:35.624Z,31.77
2023-03-08T12:59:23.491Z,31.47
2023-03-08T13:01:55.679Z,35.77
2023-03-08T13:04:42.347Z,37.90
2023-03-08T13:07:18.533Z,41.03
2023-03-08T13:09:54.666Z,41.07
2023-03-08T13:12:32.792Z,35.93
2023-03-08T13:15:11.501Z,37.13
2023-03-08T13:17:41.641Z,32.63
2023-03-08T13:20:17.269Z,35.00
2023-03-08T13:23:12.974Z,39.73
2023-03-08T13:25:39.673Z,40.60
2023-03-08T13:28:13.081Z,35.13
2023-03-08T13:30:49.720Z,36.70
2023-03-08T13:33:40.240Z,34.37
2023-03-08T13:36:14.784Z,38.70
2023-03-08T13:38:41.522Z,36.80
2023-03-08T13:41:08.149Z,39.67
2023-03-08T13:43:35.789Z,39.03
2023-03-08T13:46:05.418Z,40.57
2023-03-08T13:48:34.936Z,36.43
2023-03-08T13:51:02.826Z,38.40
2023-03-08T13:53:35.462Z,39.47
2023-03-08T13:56:05.442Z,35.97
2023-03-08T13:58:38.349Z,50.50
2023-03-08T14:01:14.839Z,34.63
2023-03-08T14:03:43.678Z,37.77
2023-03-08T14:06:26.430Z,34.27
2023-03-08T14:08:58.856Z,39.27
2023-03-08T14:11:33.558Z,39.00
2023-03-08T14:14:02.891Z,39.67
2023-03-08T14:16:35.104Z,40.60
2023-03-08T14:19:27.589Z,40.97
2023-03-08T14:21:57.734Z,36.63
2023-03-08T14:24:26.636Z,36.33
2023-03-08T14:27:06.028Z,41.77
2023-03-08T14:29:34.624Z,38.07
2023-03-08T14:32:04.675Z,39.90
2023-03-08T14:34:41.673Z,43.93
2023-03-08T14:37:11.122Z,41.50
2023-03-08T14:39:42.164Z,41.97
2023-03-08T14:42:16.225Z,36.90
2023-03-08T14:44:42.718Z,38.73
2023-03-08T14:47:19.320Z,39.03
2023-03-08T14:49:55.221Z,42.07
2023-03-08T14:52:21.692Z,40.27
2023-03-08T14:54:48.240Z,39.13
2023-03-08T14:57:33.288Z,49.50
2023-03-08T15:00:14.026Z,36.80
2023-03-08T15:02:40.809Z,42.10
2023-03-08T15:05:14.143Z,41.57
2023-03-08T15:07:41.799Z,41.30
2023-03-08T15:10:14.169Z,42.83
2023-03-08T15:12:41.246Z,39.60
2023-03-08T15:15:14.737Z,38.70
2023-03-08T15:17:41.375Z,38.53
2023-03-08T15:20:10.179Z,36.23
2023-03-08T15:22:43.130Z,38.43
2023-03-08T15:25:19.146Z,42.90
2023-03-08T15:27:46.548Z,37.90
2023-03-08T15:30:21.207Z,37.73
2023-03-08T15:32:48.002Z,38.00
2023-03-08T15:35:14.893Z,36.73
2023-03-08T15:37:42.568Z,36.30
2023-03-08T15:40:29.072Z,39.30
2023-03-08T15:42:55.770Z,37.37
2023-03-08T15:45:22.203Z,37.83
2023-03-08T15:48:02.618Z,34.17
2023-03-08T15:50:30.821Z,36.43
2023-03-08T15:52:58.065Z,40.90
2023-03-08T15:55:26.485Z,36.07
2023-03-08T15:57:53.075Z,35.70
2023-03-08T16:00:22.048Z,36.97
2023-03-08T16:02:49.468Z,35.03
2023-03-08T16:05:16.459Z,33.40
2023-03-08T16:07:43.138Z,36.40
2023-03-08T16:10:13.199Z,36.97
2023-03-08T16:12:41.068Z,39.40
2023-03-08T16:15:08.062Z,36.53
2023-03-08T16:17:34.889Z,32.97
2023-03-08T16:20:01.304Z,34.87
2023-03-08T16:22:28.995Z,36.77
2023-03-08T16:24:55.532Z,35.17
2023-03-08T16:27:22.222Z,34.10
2023-03-08T16:29:52.714Z,32.87
2023-03-08T16:32:20.190Z,29.67
2023-03-08T16:34:52.606Z,32.83
2023-03-08T16:37:20.392Z,27.63
2023-03-08T16:39:49.126Z,35.37
2023-03-08T16:42:16.475Z,33.80
2023-03-08T16:44:50.514Z,35.83
2023-03-08T16:47:17.116Z,37.17
2023-03-08T16:49:43.607Z,30.97
2023-03-08T16:52:10.423Z,38.87
2023-03-08T16:54:36.822Z,38.87
2023-03-08T16:57:18.111Z,38.03
2023-03-08T16:59:45.418Z,36.40
2023-03-08T17:02:16.847Z,36.40
2023-03-08T17:04:43.592Z,31.10
2023-03-08T17:07:11.239Z,34.07
2023-03-08T17:09:38.455Z,37.47
2023-03-08T17:12:05.251Z,39.70
2023-03-08T17:14:34.633Z,41.30
2023-03-08T17:17:01.637Z,40.07
2023-03-08T17:19:28.063Z,38.80
2023-03-08T17:21:54.799Z,35.40
2023-03-08T17:24:22.333Z,41.00
2023-03-08T17:26:51.136Z,39.13
2023-03-08T17:29:17.703Z,41.77
2023-03-08T17:31:44.437Z,42.63
2023-03-08T17:34:11.058Z,42.70
2023-03-08T17:36:38.091Z,38.20
2023-03-08T17:39:04.600Z,36.80
2023-03-08T17:41:32.434Z,43.70
2023-03-08T17:43:59.076Z,44.10
2023-03-08T17:46:27.342Z,47.17
2023-03-08T17:48:55.564Z,41.20
2023-03-08T17:51:25.355Z,44.17
2023-03-08T17:53:52.617Z,45.43
2023-03-08T17:56:21.662Z,43.30
2023-03-08T17:58:49.719Z,45.63
2023-03-08T18:01:19.106Z,42.33
2023-03-08T18:03:46.482Z,50.47
2023-03-08T18:06:20.903Z,46.60
2023-03-08T18:08:47.318Z,46.17
2023-03-08T18:11:13.710Z,41.83
2023-03-08T18:13:40.928Z,42.03
2023-03-08T18:16:07.909Z,50.57
2023-03-08T18:18:34.340Z,42.90
2023-03-08T18:21:12.713Z,44.67
2023-03-08T18:23:42.877Z,48.10
2023-03-08T18:26:10.588Z,51.50
2023-03-08T18:28:37.081Z,48.83
2023-03-08T18:31:15.796Z,47.23
2023-03-08T18:33:42.631Z,49.93
2023-03-08T18:36:09.186Z,47.63
2023-03-08T18:38:35.898Z,50.07
2023-03-08T18:41:14.107Z,43.70
2023-03-08T18:43:41.264Z,36.73
2023-03-08T18:46:10.307Z,49.07
2023-03-08T18:48:36.886Z,40.50
2023-03-08T18:51:04.085Z,48.70
2023-03-08T18:53:30.453Z,40.13
2023-03-08T18:55:59.441Z,42.50
2023-03-08T18:58:26.472Z,40.03
2023-03-08T19:00:56.946Z,43.93
2023-03-08T19:03:23.487Z,46.83
2023-03-08T19:05:49.954Z,41.70
2023-03-08T19:08:16.368Z,53.93
2023-03-08T19:10:42.753Z,47.80
2023-03-08T19:13:09.136Z,54.13
2023-03-08T19:15:37.991Z,52.90
2023-03-08T19:18:05.818Z,52.57
2023-03-08T19:20:39.326Z,49.40
2023-03-08T19:23:05.853Z,47.33
2023-03-08T19:25:34.074Z,53.03
2023-03-08T19:28:00.593Z,48.07
2023-03-08T19:30:28.373Z,45.00
2023-03-08T19:32:55.996Z,46.80
2023-03-08T19:35:22.563Z,53.07
2023-03-08T19:37:48.957Z,47.00
2023-03-08T19:40:15.582Z,44.20
2023-03-08T19:42:41.974Z,56.73
2023-03-08T19:45:08.976Z,48.83
2023-03-08T19:47:35.341Z,48.33
2023-03-08T19:50:01.717Z,51.03
2023-03-08T19:52:28.088Z,55.57
2023-03-08T19:54:54.532Z,56.10
2023-03-08T19:57:20.947Z,46.20
2023-03-08T19:59:47.353Z,55.17
2023-03-08T20:02:13.752Z,47.17
2023-03-08T20:04:40.862Z,46.53
2023-03-08T20:07:07.572Z,39.93
2023-03-08T20:09:33.941Z,45.07
2023-03-08T20:12:00.361Z,54.83
2023-03-08T20:14:27.661Z,34.80
2023-03-08T20:16:55.102Z,29.30
2023-03-08T20:19:21.706Z,14.20
2023-03-08T20:21:49.045Z,16.27
2023-03-08T20:24:18.122Z,5.97
2023-03-08T20:26:45.594Z,6.87
2023-03-08T20:29:12.080Z,4.10
2023-03-08T20:31:38.669Z,4.27
2023-03-08T20:34:05.077Z,5.20
2023-03-08T20:36:31.660Z,5.73
2023-03-08T20:38:58.736Z,4.63
2023-03-08T20:41:25.794Z,5.30
2023-03-08T20:43:55.383Z,4.53
2023-03-08T20:46:25.890Z,3.97
2023-03-08T20:48:52.470Z,3.53
2023-03-08T20:51:21.868Z,4.60
2023-03-08T20:53:50.584Z,3.80
2023-03-08T20:56:18.903Z,4.57
2023-03-08T20:58:46.329Z,5.60
2023-03-08T21:01:15.465Z,4.23
2023-03-08T21:03:42.211Z,3.37
2023-03-08T21:06:13.618Z,3.90
2023-03-08T21:08:40.246Z,3.40
2023-03-08T21:11:06.772Z,3.10
2023-03-08T21:13:33.317Z,3.43
2023-03-08T21:16:01.346Z,2.97
2023-03-08T21:18:27.741Z,2.93
2023-03-08T21:20:54.140Z,2.40
2023-03-08T21:23:23.011Z,2.20
2023-03-08T21:25:53.094Z,2.27
2023-03-08T21:28:21.496Z,3.87
2023-03-08T21:30:48.344Z,1.87
2023-03-08T21:33:14.911Z,2.47
2023-03-08T21:35:42.430Z,2.47
2023-03-08T21:38:09.286Z,3.20
2023-03-08T21:40:41.080Z,1.90
2023-03-08T21:43:08.017Z,2.30
2023-03-08T21:45:42.174Z,3.20
2023-03-08T21:48:09.240Z,2.00
2023-03-08T21:50:39.815Z,1.57
2023-03-08T21:53:07.534Z,1.97
2023-03-08T21:55:34.156Z,3.13
2023-03-08T21:58:00.858Z,2.87
2023-03-08T22:00:27.426Z,4.43
2023-03-08T22:02:54.852Z,3.73
2023-03-08T22:05:21.408Z,2.90
2023-03-08T22:07:47.866Z,2.43
2023-03-08T22:10:15.169Z,2.63
2023-03-08T22:12:44.795Z,3.10
2023-03-08T22:15:12.269Z,2.53
2023-03-08T22:17:39.091Z,2.20
2023-03-08T22:20:06.309Z,1.77
2023-03-08T22:22:32.728Z,2.90
2023-03-08T22:25:00.055Z,2.27
2023-03-08T22:27:28.220Z,3.20
2023-03-08T22:29:55.066Z,2.07
2023-03-08T22:32:21.838Z,3.10
2023-03-08T22:34:48.344Z,4.37
2023-03-08T22:37:15.216Z,4.03
2023-03-08T22:39:42.045Z,2.60
2023-03-08T22:42:08.542Z,3.57
2023-03-08T22:44:34.991Z,4.03
2023-03-08T22:47:01.761Z,3.70
2023-03-08T22:49:28.188Z,3.63
2023-03-08T22:51:54.578Z,3.33
2023-03-08T22:54:23.169Z,5.33
2023-03-08T22:56:50.174Z,3.97
2023-03-08T22:59:17.204Z,4.47
2023-03-08T23:01:43.768Z,3.80
2023-03-08T23:04:11.941Z,4.00
2023-03-08T23:06:39.008Z,3.83
2023-03-08T23:09:07.936Z,3.50
2023-03-08T23:11:35.683Z,4.83
2023-03-08T23:14:03.218Z,4.10
2023-03-08T23:16:29.781Z,7.33
2023-03-08T23:18:56.600Z,4.83
2023-03-08T23:21:25.162Z,4.53
2023-03-08T23:23:51.600Z,3.70
2023-03-08T23:26:23.746Z,4.00
2023-03-08T23:28:51.090Z,4.20
2023-03-08T23:31:19.776Z,4.43
2023-03-08T23:33:46.536Z,3.87
2023-03-08T23:36:15.295Z,4.20
2023-03-08T23:38:42.442Z,4.73
2023-03-08T23:41:10.501Z,3.80
2023-03-08T23:43:37.822Z,3.70
2023-03-08T23:46:10.504Z,4.60
2023-03-08T23:48:37.219Z,4.17
2023-03-08T23:51:05.342Z,4.37
2023-03-08T23:53:31.751Z,3.80
2023-03-08T23:55:58.242Z,5.23
2023-03-08T23:58:24.710Z,4.37
